Home   Weather   India   Amritsar   Past weeks
Flag for India

Past Weather in Amritsar, Punjab, India — Yesterday and Last 2 Weeks

Currently: 79 °F. Passing clouds. (Weather station: Amritsar Airport, India). See more current weather

Past Weather in Amritsar — Graph

°F

Amritsar Temperature Yesterday

Maximum temperature yesterday: 79 °F (at 1:30 pm)
Minimum temperature yesterday: 63 °F (at 5:30 am)
Average temperature yesterday: 69 °F

High & Low Weather Summary for the Past Weeks

 TemperatureHumidityPressure
High86 °F (Feb 25, 2:30 pm)100% (Feb 22, 2:30 am)30.07 "Hg (Feb 22, 2:30 am)
Low50 °F (Feb 22, 6:30 am)21% (Mar 6, 4:30 pm)29.62 "Hg (Feb 27, 3:00 am)
Average67 °F68%29.89 "Hg
* Reported Feb 21 1:30 pm — Mar 8 1:30 pm, Amritsar. Weather by CustomWeather, © 2021

Note: Actual official high and low records may vary slightly from our data, if they occured in-between our weather recording intervals... More about our weather records

Amritsar Weather History for the Previous 24 Hours

Scroll right to see more
 ConditionsComfort  
Time TempWeatherWind HumidityBarometerVisibility
1:30 pm
Mon, Mar 8
77 °FPassing clouds.8 mph51%29.95 "Hg4 mi
1:00 pm77 °FPassing clouds.9 mph51%29.95 "Hg4 mi
12:30 pm75 °FScattered clouds.9 mph57%29.95 "Hg4 mi
11:30 am75 °FScattered clouds.2 mph54%29.98 "Hg4 mi
11:00 am75 °FPassing clouds.6 mph50%29.95 "Hg4 mi
10:00 am73 °FClear.8 mph50%29.95 "Hg4 mi
9:30 am70 °FClear.2 mph57%29.92 "Hg4 mi
9:00 am68 °FScattered clouds.6 mph60%29.92 "Hg3 mi
8:30 am66 °FScattered clouds.6 mph64%29.92 "Hg3 mi
8:00 am63 °FScattered clouds.2 mph73%29.89 "Hg2 mi
7:30 am61 °FScattered clouds.8 mph77%29.86 "Hg2 mi
7:00 am61 °FPassing clouds.7 mph77%29.86 "Hg2 mi
6:00 am61 °FThunderstorms. Partly cloudy.8 mph77%29.83 "Hg2 mi
5:30 am59 °FThunderstorms. Partly cloudy.6 mph77%29.83 "Hg2 mi
5:00 am59 °FLight rain. Passing clouds.2 mph77%29.83 "Hg2 mi
4:00 am59 °FFog.2 mph77%29.83 "Hg2 mi
3:30 am59 °FFog.2 mph77%29.83 "Hg2 mi
3:00 am57 °FFog.8 mph82%29.83 "Hg2 mi
2:30 am57 °FFog.8 mph82%29.83 "Hg2 mi
2:00 am57 °FFog.2 mph82%29.86 "Hg2 mi
1:30 am57 °FFog.2 mph82%29.83 "Hg2 mi
1:00 am61 °FFog.8 mph72%29.83 "Hg2 mi
12:30 am63 °FFog.8 mph68%29.86 "Hg2 mi
12:00 am61 °FFog.8 mph77%29.86 "Hg2 mi
11:30 pm
Sun, Mar 7
64 °FFog.2 mph68%29.83 "Hg2 mi
11:00 pm63 °FFog.6 mph73%29.86 "Hg2 mi
10:30 pm63 °FFog.2 mph77%29.83 "Hg2 mi
10:00 pm64 °FThunderstorms. Passing clouds.No wind73%29.86 "Hg2 mi
9:30 pm66 °FThunderstorms. Partly cloudy.5 mph68%29.86 "Hg2 mi
9:00 pm66 °FThunderstorms. Passing clouds.8 mph73%29.83 "Hg2 mi
8:30 pm66 °FPartly cloudy.7 mph73%29.83 "Hg2 mi
8:00 pm68 °FPartly cloudy.8 mph73%29.80 "Hg2 mi
7:30 pm68 °FPartly cloudy.3 mph73%29.80 "Hg2 mi
6:30 pm70 °FBroken clouds.6 mph69%29.80 "Hg2 mi
6:00 pm70 °FBroken clouds.6 mph73%29.80 "Hg2 mi
5:30 pm72 °FBroken clouds.8 mph65%29.77 "Hg2 mi
5:00 pm73 °FBroken clouds.9 mph61%29.77 "Hg2 mi
4:30 pm73 °FBroken clouds.6 mph65%29.80 "Hg3 mi
4:00 pm73 °FBroken clouds.12 mph65%29.80 "Hg3 mi
3:30 pm77 °FBroken clouds.2 mph57%29.80 "Hg3 mi
3:00 pm77 °FBroken clouds.7 mph57%29.80 "Hg3 mi
2:00 pm79 °FBroken clouds.8 mph51%29.83 "Hg3 mi
Weather by CustomWeather, © 2021

See weather overview